sensor_id;sensor_type;location;lat;lon;timestamp;P1;durP1;ratioP1;P2;durP2;ratioP2
26822;SDS011;14852;51.910;8.878;2024-02-21T00:00:51;14.68;;;7.30;;
26822;SDS011;14852;51.910;8.878;2024-02-21T00:03:17;14.75;;;7.40;;
26822;SDS011;14852;51.910;8.878;2024-02-21T00:05:43;17.67;;;8.18;;
26822;SDS011;14852;51.910;8.878;2024-02-21T00:08:08;14.48;;;7.68;;
26822;SDS011;14852;51.910;8.878;2024-02-21T00:10:34;15.85;;;8.98;;
26822;SDS011;14852;51.910;8.878;2024-02-21T00:13:01;14.60;;;8.57;;
26822;SDS011;14852;51.910;8.878;2024-02-21T00:15:27;17.85;;;8.30;;
26822;SDS011;14852;51.910;8.878;2024-02-21T00:17:52;19.52;;;8.95;;
26822;SDS011;14852;51.910;8.878;2024-02-21T00:20:18;11.88;;;7.55;;
26822;SDS011;14852;51.910;8.878;2024-02-21T00:22:45;21.90;;;10.02;;
26822;SDS011;14852;51.910;8.878;2024-02-21T00:25:11;15.43;;;9.93;;
26822;SDS011;14852;51.910;8.878;2024-02-21T00:27:37;16.20;;;8.02;;
26822;SDS011;14852;51.910;8.878;2024-02-21T00:30:04;16.20;;;8.43;;
26822;SDS011;14852;51.910;8.878;2024-02-21T00:32:31;14.73;;;8.80;;
26822;SDS011;14852;51.910;8.878;2024-02-21T00:34:59;25.50;;;10.07;;
26822;SDS011;14852;51.910;8.878;2024-02-21T00:37:25;19.30;;;9.30;;
26822;SDS011;14852;51.910;8.878;2024-02-21T00:39:51;21.85;;;9.13;;
26822;SDS011;14852;51.910;8.878;2024-02-21T00:42:18;18.13;;;9.85;;
26822;SDS011;14852;51.910;8.878;2024-02-21T00:44:43;14.80;;;8.90;;
26822;SDS011;14852;51.910;8.878;2024-02-21T00:47:10;18.92;;;10.30;;
26822;SDS011;14852;51.910;8.878;2024-02-21T00:49:36;19.25;;;11.75;;
26822;SDS011;14852;51.910;8.878;2024-02-21T00:52:01;18.52;;;10.25;;
26822;SDS011;14852;51.910;8.878;2024-02-21T00:54:27;16.00;;;9.32;;
26822;SDS011;14852;51.910;8.878;2024-02-21T00:56:53;19.58;;;11.02;;
26822;SDS011;14852;51.910;8.878;2024-02-21T00:59:19;19.08;;;10.23;;
26822;SDS011;14852;51.910;8.878;2024-02-21T01:01:44;17.33;;;10.02;;
26822;SDS011;14852;51.910;8.878;2024-02-21T01:04:10;13.88;;;8.27;;
26822;SDS011;14852;51.910;8.878;2024-02-21T01:06:36;16.08;;;9.30;;
26822;SDS011;14852;51.910;8.878;2024-02-21T01:09:02;14.38;;;8.35;;
26822;SDS011;14852;51.910;8.878;2024-02-21T01:11:27;18.30;;;10.18;;
26822;SDS011;14852;51.910;8.878;2024-02-21T01:13:54;14.18;;;10.27;;
26822;SDS011;14852;51.910;8.878;2024-02-21T01:16:20;16.08;;;9.70;;
26822;SDS011;14852;51.910;8.878;2024-02-21T01:18:46;12.38;;;8.50;;
26822;SDS011;14852;51.910;8.878;2024-02-21T01:21:12;16.08;;;9.68;;
26822;SDS011;14852;51.910;8.878;2024-02-21T01:23:38;19.17;;;10.88;;
26822;SDS011;14852;51.910;8.878;2024-02-21T01:26:05;14.93;;;7.70;;
26822;SDS011;14852;51.910;8.878;2024-02-21T01:28:33;19.13;;;10.77;;
26822;SDS011;14852;51.910;8.878;2024-02-21T01:31:00;20.33;;;11.10;;
26822;SDS011;14852;51.910;8.878;2024-02-21T01:33:26;18.10;;;10.43;;
26822;SDS011;14852;51.910;8.878;2024-02-21T01:35:52;16.23;;;9.65;;
26822;SDS011;14852;51.910;8.878;2024-02-21T01:38:18;15.40;;;9.23;;
26822;SDS011;14852;51.910;8.878;2024-02-21T01:40:43;16.98;;;9.63;;
26822;SDS011;14852;51.910;8.878;2024-02-21T01:43:16;19.25;;;9.70;;
26822;SDS011;14852;51.910;8.878;2024-02-21T01:45:49;17.30;;;9.23;;
26822;SDS011;14852;51.910;8.878;2024-02-21T01:48:17;16.27;;;10.48;;
26822;SDS011;14852;51.910;8.878;2024-02-21T01:50:47;15.55;;;10.18;;
26822;SDS011;14852;51.910;8.878;2024-02-21T01:53:15;16.35;;;10.35;;
26822;SDS011;14852;51.910;8.878;2024-02-21T01:55:46;18.50;;;10.65;;
26822;SDS011;14852;51.910;8.878;2024-02-21T01:58:13;18.52;;;11.02;;
26822;SDS011;14852;51.910;8.878;2024-02-21T02:00:43;16.25;;;9.68;;
26822;SDS011;14852;51.910;8.878;2024-02-21T02:03:11;17.65;;;10.77;;
26822;SDS011;14852;51.910;8.878;2024-02-21T02:05:46;12.82;;;9.13;;
26822;SDS011;14852;51.910;8.878;2024-02-21T02:08:14;14.65;;;10.38;;
26822;SDS011;14852;51.910;8.878;2024-02-21T02:10:41;20.05;;;11.18;;
26822;SDS011;14852;51.910;8.878;2024-02-21T02:13:08;18.80;;;11.40;;
26822;SDS011;14852;51.910;8.878;2024-02-21T02:15:52;18.27;;;10.93;;
26822;SDS011;14852;51.910;8.878;2024-02-21T02:18:19;25.73;;;13.20;;
26822;SDS011;14852;51.910;8.878;2024-02-21T02:20:45;16.77;;;9.50;;
26822;SDS011;14852;51.910;8.878;2024-02-21T02:23:19;16.23;;;10.02;;
26822;SDS011;14852;51.910;8.878;2024-02-21T02:25:48;19.48;;;10.90;;
26822;SDS011;14852;51.910;8.878;2024-02-21T02:28:19;18.25;;;11.00;;
26822;SDS011;14852;51.910;8.878;2024-02-21T02:30:45;18.70;;;10.50;;
26822;SDS011;14852;51.910;8.878;2024-02-21T02:33:12;17.77;;;10.55;;
26822;SDS011;14852;51.910;8.878;2024-02-21T02:35:38;19.83;;;12.48;;
26822;SDS011;14852;51.910;8.878;2024-02-21T02:38:04;16.23;;;11.63;;
26822;SDS011;14852;51.910;8.878;2024-02-21T02:40:33;17.35;;;9.82;;
26822;SDS011;14852;51.910;8.878;2024-02-21T02:42:59;18.88;;;11.48;;
26822;SDS011;14852;51.910;8.878;2024-02-21T02:45:25;15.88;;;10.45;;
26822;SDS011;14852;51.910;8.878;2024-02-21T02:47:55;17.83;;;11.15;;
26822;SDS011;14852;51.910;8.878;2024-02-21T02:50:25;18.27;;;11.00;;
26822;SDS011;14852;51.910;8.878;2024-02-21T02:52:52;16.73;;;10.65;;
26822;SDS011;14852;51.910;8.878;2024-02-21T02:55:19;18.92;;;11.30;;
26822;SDS011;14852;51.910;8.878;2024-02-21T02:57:45;13.27;;;9.40;;
26822;SDS011;14852;51.910;8.878;2024-02-21T03:00:11;17.05;;;10.63;;
26822;SDS011;14852;51.910;8.878;2024-02-21T03:02:40;16.75;;;9.85;;
26822;SDS011;14852;51.910;8.878;2024-02-21T03:05:11;14.95;;;10.20;;
26822;SDS011;14852;51.910;8.878;2024-02-21T03:07:43;16.60;;;9.90;;
26822;SDS011;14852;51.910;8.878;2024-02-21T03:10:10;19.08;;;10.95;;
26822;SDS011;14852;51.910;8.878;2024-02-21T03:12:36;17.52;;;11.13;;
26822;SDS011;14852;51.910;8.878;2024-02-21T03:15:03;15.73;;;9.73;;
26822;SDS011;14852;51.910;8.878;2024-02-21T03:17:29;15.57;;;11.48;;
26822;SDS011;14852;51.910;8.878;2024-02-21T03:19:56;17.52;;;10.13;;
26822;SDS011;14852;51.910;8.878;2024-02-21T03:22:22;15.18;;;9.82;;
26822;SDS011;14852;51.910;8.878;2024-02-21T03:24:49;16.20;;;9.30;;
26822;SDS011;14852;51.910;8.878;2024-02-21T03:27:15;13.50;;;9.18;;
26822;SDS011;14852;51.910;8.878;2024-02-21T03:29:40;13.98;;;9.48;;
26822;SDS011;14852;51.910;8.878;2024-02-21T03:32:06;15.88;;;10.15;;
26822;SDS011;14852;51.910;8.878;2024-02-21T03:34:32;18.65;;;10.50;;
26822;SDS011;14852;51.910;8.878;2024-02-21T03:36:58;11.90;;;8.05;;
26822;SDS011;14852;51.910;8.878;2024-02-21T03:39:24;18.90;;;9.90;;
26822;SDS011;14852;51.910;8.878;2024-02-21T03:41:49;18.58;;;10.15;;
26822;SDS011;14852;51.910;8.878;2024-02-21T03:44:16;15.50;;;9.02;;
26822;SDS011;14852;51.910;8.878;2024-02-21T03:46:42;11.68;;;7.95;;
26822;SDS011;14852;51.910;8.878;2024-02-21T03:49:07;14.75;;;9.60;;
26822;SDS011;14852;51.910;8.878;2024-02-21T03:51:33;17.02;;;10.85;;
26822;SDS011;14852;51.910;8.878;2024-02-21T03:53:59;19.42;;;10.70;;
26822;SDS011;14852;51.910;8.878;2024-02-21T03:56:25;18.35;;;10.20;;
26822;SDS011;14852;51.910;8.878;2024-02-21T03:58:50;14.52;;;8.70;;
26822;SDS011;14852;51.910;8.878;2024-02-21T04:01:16;13.38;;;8.40;;
26822;SDS011;14852;51.910;8.878;2024-02-21T04:03:43;11.65;;;8.18;;
26822;SDS011;14852;51.910;8.878;2024-02-21T04:06:17;11.02;;;8.68;;
26822;SDS011;14852;51.910;8.878;2024-02-21T04:08:44;15.15;;;9.10;;
26822;SDS011;14852;51.910;8.878;2024-02-21T04:11:10;13.60;;;9.02;;
26822;SDS011;14852;51.910;8.878;2024-02-21T04:13:36;14.27;;;8.63;;
26822;SDS011;14852;51.910;8.878;2024-02-21T04:16:02;16.38;;;9.90;;
26822;SDS011;14852;51.910;8.878;2024-02-21T04:18:28;14.25;;;9.38;;
26822;SDS011;14852;51.910;8.878;2024-02-21T04:20:54;13.25;;;9.35;;
26822;SDS011;14852;51.910;8.878;2024-02-21T04:23:19;9.88;;;8.35;;
26822;SDS011;14852;51.910;8.878;2024-02-21T04:25:45;10.27;;;7.55;;
26822;SDS011;14852;51.910;8.878;2024-02-21T04:28:11;12.35;;;7.35;;
26822;SDS011;14852;51.910;8.878;2024-02-21T04:30:37;12.93;;;8.30;;
26822;SDS011;14852;51.910;8.878;2024-02-21T04:33:02;11.75;;;7.95;;
26822;SDS011;14852;51.910;8.878;2024-02-21T04:35:28;17.10;;;9.13;;
26822;SDS011;14852;51.910;8.878;2024-02-21T04:37:54;14.80;;;8.63;;
26822;SDS011;14852;51.910;8.878;2024-02-21T04:40:20;15.82;;;8.20;;
26822;SDS011;14852;51.910;8.878;2024-02-21T04:42:46;17.83;;;8.20;;
26822;SDS011;14852;51.910;8.878;2024-02-21T04:45:12;10.57;;;7.68;;
26822;SDS011;14852;51.910;8.878;2024-02-21T04:47:37;11.80;;;7.78;;
26822;SDS011;14852;51.910;8.878;2024-02-21T04:50:03;14.75;;;7.57;;
26822;SDS011;14852;51.910;8.878;2024-02-21T04:52:29;13.95;;;8.38;;
26822;SDS011;14852;51.910;8.878;2024-02-21T04:54:55;17.00;;;8.55;;
26822;SDS011;14852;51.910;8.878;2024-02-21T04:57:21;13.77;;;7.35;;
26822;SDS011;14852;51.910;8.878;2024-02-21T04:59:46;9.85;;;6.78;;
26822;SDS011;14852;51.910;8.878;2024-02-21T05:02:13;15.80;;;8.45;;
26822;SDS011;14852;51.910;8.878;2024-02-21T05:04:39;13.38;;;7.85;;
26822;SDS011;14852;51.910;8.878;2024-02-21T05:07:06;13.05;;;8.05;;
26822;SDS011;14852;51.910;8.878;2024-02-21T05:09:33;14.43;;;7.70;;
26822;SDS011;14852;51.910;8.878;2024-02-21T05:11:58;10.45;;;7.13;;
26822;SDS011;14852;51.910;8.878;2024-02-21T05:14:25;14.77;;;8.05;;
26822;SDS011;14852;51.910;8.878;2024-02-21T05:16:52;12.85;;;8.80;;
26822;SDS011;14852;51.910;8.878;2024-02-21T05:19:18;13.63;;;7.78;;
26822;SDS011;14852;51.910;8.878;2024-02-21T05:21:44;9.27;;;6.65;;
26822;SDS011;14852;51.910;8.878;2024-02-21T05:24:10;14.77;;;8.68;;
26822;SDS011;14852;51.910;8.878;2024-02-21T05:26:36;10.48;;;6.95;;
26822;SDS011;14852;51.910;8.878;2024-02-21T05:29:02;13.18;;;7.28;;
26822;SDS011;14852;51.910;8.878;2024-02-21T05:31:42;11.23;;;7.20;;
26822;SDS011;14852;51.910;8.878;2024-02-21T05:34:22;11.02;;;7.55;;
26822;SDS011;14852;51.910;8.878;2024-02-21T05:36:48;13.48;;;8.77;;
26822;SDS011;14852;51.910;8.878;2024-02-21T05:39:14;13.18;;;8.00;;
26822;SDS011;14852;51.910;8.878;2024-02-21T05:41:41;12.15;;;7.85;;
26822;SDS011;14852;51.910;8.878;2024-02-21T05:44:07;12.27;;;7.63;;
26822;SDS011;14852;51.910;8.878;2024-02-21T05:46:33;14.65;;;7.90;;
26822;SDS011;14852;51.910;8.878;2024-02-21T05:48:59;16.45;;;9.07;;
26822;SDS011;14852;51.910;8.878;2024-02-21T05:51:24;13.05;;;7.28;;
26822;SDS011;14852;51.910;8.878;2024-02-21T05:53:50;13.77;;;8.98;;
26822;SDS011;14852;51.910;8.878;2024-02-21T05:56:16;13.18;;;7.72;;
26822;SDS011;14852;51.910;8.878;2024-02-21T05:58:43;14.13;;;8.38;;
26822;SDS011;14852;51.910;8.878;2024-02-21T06:01:09;12.05;;;7.18;;
26822;SDS011;14852;51.910;8.878;2024-02-21T06:03:35;14.65;;;8.48;;
26822;SDS011;14852;51.910;8.878;2024-02-21T06:06:01;13.65;;;7.78;;
26822;SDS011;14852;51.910;8.878;2024-02-21T06:08:28;17.70;;;8.82;;
26822;SDS011;14852;51.910;8.878;2024-02-21T06:10:53;13.85;;;8.35;;
26822;SDS011;14852;51.910;8.878;2024-02-21T06:13:28;12.02;;;7.25;;
26822;SDS011;14852;51.910;8.878;2024-02-21T06:15:54;12.45;;;7.80;;
26822;SDS011;14852;51.910;8.878;2024-02-21T06:18:20;10.82;;;8.23;;
26822;SDS011;14852;51.910;8.878;2024-02-21T06:20:46;10.73;;;6.70;;
26822;SDS011;14852;51.910;8.878;2024-02-21T06:23:12;10.38;;;6.82;;
26822;SDS011;14852;51.910;8.878;2024-02-21T06:25:41;17.38;;;7.80;;
26822;SDS011;14852;51.910;8.878;2024-02-21T06:28:07;15.35;;;7.40;;
26822;SDS011;14852;51.910;8.878;2024-02-21T06:30:33;15.00;;;7.50;;
26822;SDS011;14852;51.910;8.878;2024-02-21T06:33:00;12.05;;;8.25;;
26822;SDS011;14852;51.910;8.878;2024-02-21T06:35:27;13.20;;;6.88;;
26822;SDS011;14852;51.910;8.878;2024-02-21T06:37:53;9.27;;;6.57;;
26822;SDS011;14852;51.910;8.878;2024-02-21T06:40:23;10.82;;;7.18;;
26822;SDS011;14852;51.910;8.878;2024-02-21T06:42:52;10.93;;;6.72;;
26822;SDS011;14852;51.910;8.878;2024-02-21T06:45:17;15.27;;;7.18;;
26822;SDS011;14852;51.910;8.878;2024-02-21T06:47:43;11.88;;;6.90;;
26822;SDS011;14852;51.910;8.878;2024-02-21T06:50:09;12.00;;;7.50;;
26822;SDS011;14852;51.910;8.878;2024-02-21T06:52:35;13.45;;;7.35;;
26822;SDS011;14852;51.910;8.878;2024-02-21T06:55:01;12.30;;;6.55;;
26822;SDS011;14852;51.910;8.878;2024-02-21T06:57:31;9.23;;;7.10;;
26822;SDS011;14852;51.910;8.878;2024-02-21T06:59:56;11.02;;;6.53;;
26822;SDS011;14852;51.910;8.878;2024-02-21T07:02:22;14.63;;;7.22;;
26822;SDS011;14852;51.910;8.878;2024-02-21T07:04:48;17.67;;;8.02;;
26822;SDS011;14852;51.910;8.878;2024-02-21T07:07:14;11.63;;;6.30;;
26822;SDS011;14852;51.910;8.878;2024-02-21T07:09:40;11.68;;;6.28;;
26822;SDS011;14852;51.910;8.878;2024-02-21T07:12:06;14.77;;;8.30;;
26822;SDS011;14852;51.910;8.878;2024-02-21T07:14:32;8.93;;;6.50;;
26822;SDS011;14852;51.910;8.878;2024-02-21T07:16:58;11.48;;;6.53;;
26822;SDS011;14852;51.910;8.878;2024-02-21T07:19:24;13.95;;;7.35;;
26822;SDS011;14852;51.910;8.878;2024-02-21T07:21:49;12.38;;;6.45;;
26822;SDS011;14852;51.910;8.878;2024-02-21T07:24:16;12.02;;;6.88;;
26822;SDS011;14852;51.910;8.878;2024-02-21T07:26:42;10.73;;;6.97;;
26822;SDS011;14852;51.910;8.878;2024-02-21T07:29:09;12.68;;;7.68;;
26822;SDS011;14852;51.910;8.878;2024-02-21T07:31:39;9.25;;;6.43;;
26822;SDS011;14852;51.910;8.878;2024-02-21T07:36:34;10.15;;;5.10;;
26822;SDS011;14852;51.910;8.878;2024-02-21T07:39:02;12.07;;;6.13;;
26822;SDS011;14852;51.910;8.878;2024-02-21T07:41:28;11.88;;;6.45;;
26822;SDS011;14852;51.910;8.878;2024-02-21T07:43:55;10.85;;;6.25;;
26822;SDS011;14852;51.910;8.878;2024-02-21T07:46:21;14.15;;;6.95;;
26822;SDS011;14852;51.910;8.878;2024-02-21T07:48:47;11.50;;;5.80;;
26822;SDS011;14852;51.910;8.878;2024-02-21T07:51:13;15.68;;;6.20;;
26822;SDS011;14852;51.910;8.878;2024-02-21T07:53:39;11.20;;;6.68;;
26822;SDS011;14852;51.910;8.878;2024-02-21T07:56:13;9.55;;;7.18;;
26822;SDS011;14852;51.910;8.878;2024-02-21T07:58:43;10.55;;;6.50;;
26822;SDS011;14852;51.910;8.878;2024-02-21T08:01:09;11.18;;;5.57;;
26822;SDS011;14852;51.910;8.878;2024-02-21T08:03:35;11.43;;;7.35;;
26822;SDS011;14852;51.910;8.878;2024-02-21T08:06:03;9.10;;;6.70;;
26822;SDS011;14852;51.910;8.878;2024-02-21T08:08:29;9.88;;;6.10;;
26822;SDS011;14852;51.910;8.878;2024-02-21T08:10:55;9.90;;;6.25;;
26822;SDS011;14852;51.910;8.878;2024-02-21T08:13:20;9.02;;;6.18;;
26822;SDS011;14852;51.910;8.878;2024-02-21T08:15:46;9.15;;;5.30;;
26822;SDS011;14852;51.910;8.878;2024-02-21T08:18:12;8.48;;;5.70;;
26822;SDS011;14852;51.910;8.878;2024-02-21T08:20:38;10.23;;;6.05;;
26822;SDS011;14852;51.910;8.878;2024-02-21T08:23:03;8.63;;;5.40;;
26822;SDS011;14852;51.910;8.878;2024-02-21T08:25:29;11.65;;;5.78;;
26822;SDS011;14852;51.910;8.878;2024-02-21T08:27:58;8.15;;;4.80;;
26822;SDS011;14852;51.910;8.878;2024-02-21T08:30:24;10.50;;;5.90;;
26822;SDS011;14852;51.910;8.878;2024-02-21T08:32:50;7.57;;;5.00;;
26822;SDS011;14852;51.910;8.878;2024-02-21T08:35:16;9.07;;;5.28;;
26822;SDS011;14852;51.910;8.878;2024-02-21T08:37:45;9.57;;;5.75;;
26822;SDS011;14852;51.910;8.878;2024-02-21T08:40:13;9.35;;;4.78;;
26822;SDS011;14852;51.910;8.878;2024-02-21T08:42:42;8.75;;;5.03;;
26822;SDS011;14852;51.910;8.878;2024-02-21T08:45:08;10.43;;;5.72;;
26822;SDS011;14852;51.910;8.878;2024-02-21T08:47:35;10.00;;;5.55;;
26822;SDS011;14852;51.910;8.878;2024-02-21T08:50:01;7.50;;;4.82;;
26822;SDS011;14852;51.910;8.878;2024-02-21T08:52:28;8.25;;;5.85;;
26822;SDS011;14852;51.910;8.878;2024-02-21T08:54:53;8.40;;;5.28;;
26822;SDS011;14852;51.910;8.878;2024-02-21T08:57:19;6.75;;;5.10;;
26822;SDS011;14852;51.910;8.878;2024-02-21T08:59:45;7.78;;;5.35;;
26822;SDS011;14852;51.910;8.878;2024-02-21T09:02:12;11.05;;;5.57;;
26822;SDS011;14852;51.910;8.878;2024-02-21T09:04:38;11.52;;;6.15;;
26822;SDS011;14852;51.910;8.878;2024-02-21T09:07:04;8.43;;;5.85;;
26822;SDS011;14852;51.910;8.878;2024-02-21T09:09:30;9.20;;;5.05;;
26822;SDS011;14852;51.910;8.878;2024-02-21T09:11:58;6.13;;;4.60;;
26822;SDS011;14852;51.910;8.878;2024-02-21T09:14:30;7.80;;;4.40;;
26822;SDS011;14852;51.910;8.878;2024-02-21T09:16:57;6.05;;;4.35;;
26822;SDS011;14852;51.910;8.878;2024-02-21T09:19:23;8.30;;;5.20;;
26822;SDS011;14852;51.910;8.878;2024-02-21T09:21:49;5.72;;;4.40;;
26822;SDS011;14852;51.910;8.878;2024-02-21T09:24:14;9.30;;;4.30;;
26822;SDS011;14852;51.910;8.878;2024-02-21T09:26:40;6.28;;;4.18;;
26822;SDS011;14852;51.910;8.878;2024-02-21T09:29:06;7.90;;;3.95;;
26822;SDS011;14852;51.910;8.878;2024-02-21T09:31:33;6.45;;;3.83;;
26822;SDS011;14852;51.910;8.878;2024-02-21T09:33:58;6.75;;;4.18;;
26822;SDS011;14852;51.910;8.878;2024-02-21T09:36:24;4.82;;;4.07;;
26822;SDS011;14852;51.910;8.878;2024-02-21T09:38:50;6.95;;;3.97;;
26822;SDS011;14852;51.910;8.878;2024-02-21T09:41:16;4.93;;;3.15;;
26822;SDS011;14852;51.910;8.878;2024-02-21T09:43:46;5.10;;;3.70;;
26822;SDS011;14852;51.910;8.878;2024-02-21T09:46:16;5.03;;;3.60;;
26822;SDS011;14852;51.910;8.878;2024-02-21T09:51:44;5.18;;;3.90;;
26822;SDS011;14852;51.910;8.878;2024-02-21T09:54:12;9.13;;;3.70;;
26822;SDS011;14852;51.910;8.878;2024-02-21T09:56:38;4.82;;;3.80;;
26822;SDS011;14852;51.910;8.878;2024-02-21T09:59:04;6.32;;;3.88;;
26822;SDS011;14852;51.910;8.878;2024-02-21T10:01:31;7.60;;;4.07;;
26822;SDS011;14852;51.910;8.878;2024-02-21T10:03:57;6.75;;;3.63;;
26822;SDS011;14852;51.910;8.878;2024-02-21T10:06:23;6.03;;;3.55;;
26822;SDS011;14852;51.910;8.878;2024-02-21T10:08:55;4.50;;;3.75;;
26822;SDS011;14852;51.910;8.878;2024-02-21T10:11:24;5.00;;;3.67;;
26822;SDS011;14852;51.910;8.878;2024-02-21T10:13:51;7.05;;;4.82;;
26822;SDS011;14852;51.910;8.878;2024-02-21T10:16:28;5.85;;;4.70;;
26822;SDS011;14852;51.910;8.878;2024-02-21T10:18:54;8.90;;;5.25;;
26822;SDS011;14852;51.910;8.878;2024-02-21T10:21:20;7.63;;;4.80;;
26822;SDS011;14852;51.910;8.878;2024-02-21T10:23:49;9.95;;;5.07;;
26822;SDS011;14852;51.910;8.878;2024-02-21T10:26:17;7.63;;;5.05;;
26822;SDS011;14852;51.910;8.878;2024-02-21T10:28:44;8.55;;;5.47;;
26822;SDS011;14852;51.910;8.878;2024-02-21T10:31:20;5.97;;;4.95;;
26822;SDS011;14852;51.910;8.878;2024-02-21T10:33:54;9.80;;;6.30;;
26822;SDS011;14852;51.910;8.878;2024-02-21T10:36:20;8.82;;;6.03;;
26822;SDS011;14852;51.910;8.878;2024-02-21T10:38:46;10.00;;;7.10;;
26822;SDS011;14852;51.910;8.878;2024-02-21T10:41:13;14.55;;;6.57;;
26822;SDS011;14852;51.910;8.878;2024-02-21T10:46:18;9.57;;;5.75;;
26822;SDS011;14852;51.910;8.878;2024-02-21T10:48:46;8.05;;;5.90;;
26822;SDS011;14852;51.910;8.878;2024-02-21T10:51:20;8.57;;;5.97;;
26822;SDS011;14852;51.910;8.878;2024-02-21T10:58:50;10.85;;;7.10;;
26822;SDS011;14852;51.910;8.878;2024-02-21T11:01:17;9.88;;;6.25;;
26822;SDS011;14852;51.910;8.878;2024-02-21T11:03:44;8.73;;;6.18;;
26822;SDS011;14852;51.910;8.878;2024-02-21T11:06:12;9.52;;;6.13;;
26822;SDS011;14852;51.910;8.878;2024-02-21T11:08:40;8.65;;;5.88;;
26822;SDS011;14852;51.910;8.878;2024-02-21T11:11:06;8.93;;;6.38;;
26822;SDS011;14852;51.910;8.878;2024-02-21T11:13:35;8.05;;;4.90;;
26822;SDS011;14852;51.910;8.878;2024-02-21T11:16:08;8.52;;;4.80;;
26822;SDS011;14852;51.910;8.878;2024-02-21T11:18:36;8.75;;;5.43;;
26822;SDS011;14852;51.910;8.878;2024-02-21T11:21:03;7.07;;;4.53;;
26822;SDS011;14852;51.910;8.878;2024-02-21T11:23:32;6.85;;;4.30;;
26822;SDS011;14852;51.910;8.878;2024-02-21T11:26:05;7.95;;;5.75;;
26822;SDS011;14852;51.910;8.878;2024-02-21T11:28:35;8.05;;;4.47;;
26822;SDS011;14852;51.910;8.878;2024-02-21T11:31:12;8.30;;;4.72;;
26822;SDS011;14852;51.910;8.878;2024-02-21T11:33:39;5.40;;;4.32;;
26822;SDS011;14852;51.910;8.878;2024-02-21T11:36:07;7.05;;;4.25;;
26822;SDS011;14852;51.910;8.878;2024-02-21T11:38:34;6.30;;;4.38;;
26822;SDS011;14852;51.910;8.878;2024-02-21T11:41:00;5.88;;;3.72;;
26822;SDS011;14852;51.910;8.878;2024-02-21T11:43:26;5.30;;;3.70;;
26822;SDS011;14852;51.910;8.878;2024-02-21T11:45:58;5.90;;;3.22;;
26822;SDS011;14852;51.910;8.878;2024-02-21T11:48:26;7.28;;;3.45;;
26822;SDS011;14852;51.910;8.878;2024-02-21T11:50:55;5.47;;;2.90;;
26822;SDS011;14852;51.910;8.878;2024-02-21T11:53:21;5.35;;;3.47;;
26822;SDS011;14852;51.910;8.878;2024-02-21T11:55:47;8.55;;;3.58;;
26822;SDS011;14852;51.910;8.878;2024-02-21T11:58:14;8.15;;;3.10;;
26822;SDS011;14852;51.910;8.878;2024-02-21T12:00:40;4.32;;;2.53;;
26822;SDS011;14852;51.910;8.878;2024-02-21T12:03:07;10.25;;;3.30;;
26822;SDS011;14852;51.910;8.878;2024-02-21T12:05:33;8.75;;;3.80;;
26822;SDS011;14852;51.910;8.878;2024-02-21T12:07:59;6.43;;;3.00;;
26822;SDS011;14852;51.910;8.878;2024-02-21T12:10:25;5.72;;;3.13;;
26822;SDS011;14852;51.910;8.878;2024-02-21T12:12:52;6.25;;;2.78;;
26822;SDS011;14852;51.910;8.878;2024-02-21T12:15:23;5.47;;;2.80;;
26822;SDS011;14852;51.910;8.878;2024-02-21T12:17:48;5.18;;;2.33;;
26822;SDS011;14852;51.910;8.878;2024-02-21T12:20:16;4.90;;;2.90;;
26822;SDS011;14852;51.910;8.878;2024-02-21T12:22:42;7.35;;;2.50;;
26822;SDS011;14852;51.910;8.878;2024-02-21T12:27:48;6.43;;;2.38;;
26822;SDS011;14852;51.910;8.878;2024-02-21T12:30:17;6.20;;;2.75;;
26822;SDS011;14852;51.910;8.878;2024-02-21T12:32:44;6.03;;;2.40;;
26822;SDS011;14852;51.910;8.878;2024-02-21T12:35:13;4.35;;;2.10;;
26822;SDS011;14852;51.910;8.878;2024-02-21T12:37:39;5.65;;;2.15;;
26822;SDS011;14852;51.910;8.878;2024-02-21T12:40:06;4.25;;;2.70;;
26822;SDS011;14852;51.910;8.878;2024-02-21T12:42:35;4.13;;;2.25;;
26822;SDS011;14852;51.910;8.878;2024-02-21T12:45:02;4.05;;;2.75;;
26822;SDS011;14852;51.910;8.878;2024-02-21T12:47:28;3.20;;;2.30;;
26822;SDS011;14852;51.910;8.878;2024-02-21T12:49:54;5.10;;;3.15;;
26822;SDS011;14852;51.910;8.878;2024-02-21T12:52:20;4.82;;;2.85;;
26822;SDS011;14852;51.910;8.878;2024-02-21T12:54:46;4.63;;;2.67;;
26822;SDS011;14852;51.910;8.878;2024-02-21T12:57:12;3.97;;;2.35;;
26822;SDS011;14852;51.910;8.878;2024-02-21T12:59:38;7.53;;;3.03;;
26822;SDS011;14852;51.910;8.878;2024-02-21T13:02:04;5.75;;;3.00;;
26822;SDS011;14852;51.910;8.878;2024-02-21T13:04:30;5.03;;;3.00;;
26822;SDS011;14852;51.910;8.878;2024-02-21T13:06:56;3.97;;;2.38;;
26822;SDS011;14852;51.910;8.878;2024-02-21T13:09:22;6.43;;;2.60;;
26822;SDS011;14852;51.910;8.878;2024-02-21T13:11:47;7.40;;;3.08;;
26822;SDS011;14852;51.910;8.878;2024-02-21T13:14:13;5.50;;;2.95;;
26822;SDS011;14852;51.910;8.878;2024-02-21T13:16:39;4.88;;;2.95;;
26822;SDS011;14852;51.910;8.878;2024-02-21T13:19:05;4.68;;;2.40;;
26822;SDS011;14852;51.910;8.878;2024-02-21T13:21:33;4.80;;;3.10;;
26822;SDS011;14852;51.910;8.878;2024-02-21T13:24:00;4.47;;;2.60;;
26822;SDS011;14852;51.910;8.878;2024-02-21T13:26:26;3.47;;;2.47;;
26822;SDS011;14852;51.910;8.878;2024-02-21T13:28:52;5.15;;;2.67;;
26822;SDS011;14852;51.910;8.878;2024-02-21T13:31:18;4.57;;;2.60;;
26822;SDS011;14852;51.910;8.878;2024-02-21T13:33:44;7.05;;;2.83;;
26822;SDS011;14852;51.910;8.878;2024-02-21T13:36:10;8.43;;;3.42;;
26822;SDS011;14852;51.910;8.878;2024-02-21T13:38:36;3.45;;;2.63;;
26822;SDS011;14852;51.910;8.878;2024-02-21T13:41:03;4.95;;;2.58;;
26822;SDS011;14852;51.910;8.878;2024-02-21T13:43:31;4.68;;;2.50;;
26822;SDS011;14852;51.910;8.878;2024-02-21T13:45:57;3.88;;;2.40;;
26822;SDS011;14852;51.910;8.878;2024-02-21T13:48:25;5.00;;;2.50;;
26822;SDS011;14852;51.910;8.878;2024-02-21T13:50:52;6.80;;;2.90;;
26822;SDS011;14852;51.910;8.878;2024-02-21T13:53:18;4.28;;;2.10;;
26822;SDS011;14852;51.910;8.878;2024-02-21T13:55:47;9.20;;;2.95;;
26822;SDS011;14852;51.910;8.878;2024-02-21T13:58:12;4.75;;;2.20;;
26822;SDS011;14852;51.910;8.878;2024-02-21T14:00:39;3.65;;;2.30;;
26822;SDS011;14852;51.910;8.878;2024-02-21T14:03:05;6.88;;;2.40;;
26822;SDS011;14852;51.910;8.878;2024-02-21T14:05:30;5.47;;;2.67;;
26822;SDS011;14852;51.910;8.878;2024-02-21T14:07:56;5.30;;;2.95;;
26822;SDS011;14852;51.910;8.878;2024-02-21T14:10:22;4.00;;;2.60;;
26822;SDS011;14852;51.910;8.878;2024-02-21T14:12:48;4.60;;;2.90;;
26822;SDS011;14852;51.910;8.878;2024-02-21T14:15:14;5.55;;;2.35;;
26822;SDS011;14852;51.910;8.878;2024-02-21T14:17:41;3.65;;;2.28;;
26822;SDS011;14852;51.910;8.878;2024-02-21T14:20:07;6.85;;;3.13;;
26822;SDS011;14852;51.910;8.878;2024-02-21T14:22:34;3.28;;;2.05;;
26822;SDS011;14852;51.910;8.878;2024-02-21T14:25:02;6.22;;;2.90;;
26822;SDS011;14852;51.910;8.878;2024-02-21T14:27:31;5.13;;;2.20;;
26822;SDS011;14852;51.910;8.878;2024-02-21T14:29:57;6.28;;;2.88;;
26822;SDS011;14852;51.910;8.878;2024-02-21T14:32:23;3.47;;;2.35;;
26822;SDS011;14852;51.910;8.878;2024-02-21T14:34:49;6.70;;;2.42;;
26822;SDS011;14852;51.910;8.878;2024-02-21T14:37:15;4.53;;;2.53;;
26822;SDS011;14852;51.910;8.878;2024-02-21T14:39:41;5.05;;;2.13;;
26822;SDS011;14852;51.910;8.878;2024-02-21T14:42:07;3.83;;;1.90;;
26822;SDS011;14852;51.910;8.878;2024-02-21T14:44:34;5.20;;;2.47;;
26822;SDS011;14852;51.910;8.878;2024-02-21T14:47:02;4.47;;;2.05;;
26822;SDS011;14852;51.910;8.878;2024-02-21T14:49:28;5.93;;;2.80;;
26822;SDS011;14852;51.910;8.878;2024-02-21T14:51:55;4.88;;;2.75;;